Time;durP1;ratioP1;P1;durP2;ratioP2;P2;SDS_P1;SDS_P2;PMS_P1;PMS_P2;Temp;Humidity;BMP_temperature;BMP_pressure;BME280_temperature;BME280_humidity;BME280_pressure;Samples;Min_cycle;Max_cycle;Signal;HPM_P1;HPM_P2
2022/09/09 00:01:14;;;;;;;1.48;1.05;;;18.30;99.90;;;;;;4875428;29;20435;-85
2022/09/09 00:03:51;;;;;;;1.25;1.08;;;18.30;99.90;;;;;;4867750;29;20101;-86
2022/09/09 00:06:46;;;;;;;4.40;1.02;;;18.30;99.90;;;;;;4875252;29;20090;-86
2022/09/09 00:09:20;;;;;;;0.57;0.57;;;18.30;99.90;;;;;;4876678;29;20093;-86
2022/09/09 00:11:52;;;;;;;3.97;0.77;;;18.30;99.90;;;;;;4874794;29;20034;-86
2022/09/09 00:14:29;;;;;;;1.48;0.80;;;18.20;99.90;;;;;;4874908;29;20038;-85
2022/09/09 00:17:13;;;;;;;1.27;1.15;;;18.20;99.90;;;;;;4859640;29;20059;-86
2022/09/09 00:20:00;;;;;;;0.45;0.45;;;18.20;99.90;;;;;;4874936;29;20033;-86
2022/09/09 00:22:30;;;;;;;0.88;0.70;;;18.20;99.90;;;;;;4875095;29;20399;-84
2022/09/09 00:25:10;;;;;;;0.50;0.50;;;18.20;99.90;;;;;;4874931;29;20037;-84
2022/09/09 00:27:50;;;;;;;;;;;18.20;99.90;;;;;;4875287;29;20062;-84
2022/09/09 00:30:22;;;;;;;0.85;0.80;;;18.20;99.90;;;;;;4875070;29;19916;-84
2022/09/09 00:32:54;;;;;;;3.28;1.00;;;18.20;99.90;;;;;;4874791;29;20038;-86
2022/09/09 00:35:32;;;;;;;0.77;0.40;;;18.10;99.90;;;;;;4875950;29;20033;-86
2022/09/09 00:38:13;;;;;;;1.55;1.30;;;18.10;99.90;;;;;;4874515;29;20029;-86
2022/09/09 00:41:02;;;;;;;1.58;1.00;;;18.10;99.90;;;;;;4873835;29;20093;-84
2022/09/09 00:43:35;;;;;;;2.53;1.08;;;18.10;99.90;;;;;;4874363;29;20044;-85
2022/09/09 00:46:29;;;;;;;0.70;0.70;;;18.10;99.90;;;;;;4875948;29;20033;-86
2022/09/09 00:49:26;;;;;;;5.20;1.20;;;18.10;99.90;;;;;;4874480;29;20040;-84
2022/09/09 00:51:55;;;;;;;1.77;1.63;;;18.10;99.90;;;;;;4874364;29;20089;-86
2022/09/09 00:54:34;;;;;;;0.50;0.50;;;18.00;99.90;;;;;;4880883;29;20032;-86
2022/09/09 00:57:34;;;;;;;3.97;1.27;;;18.00;99.90;;;;;;4892185;29;20033;-84
2022/09/09 01:00:17;;;;;;;0.43;0.43;;;18.00;99.90;;;;;;4875574;29;20057;-85
2022/09/09 01:02:59;;;;;;;2.08;0.77;;;18.00;99.90;;;;;;4874228;29;20130;-84
2022/09/09 01:05:50;;;;;;;2.45;1.02;;;18.00;99.90;;;;;;4874096;29;20112;-86
2022/09/09 01:08:42;;;;;;;2.00;1.25;;;18.00;99.90;;;;;;4873919;29;20033;-86
2022/09/09 01:11:20;;;;;;;4.10;0.63;;;18.00;99.90;;;;;;4873701;29;20033;-85
2022/09/09 01:13:58;;;;;;;0.65;0.40;;;18.00;99.90;;;;;;4873905;29;20037;-85
2022/09/09 01:16:29;;;;;;;0.93;0.93;;;18.00;99.90;;;;;;4873986;29;20046;-84
2022/09/09 01:18:57;;;;;;;4.93;1.02;;;18.00;99.90;;;;;;4874009;29;20064;-84
2022/09/09 01:21:37;;;;;;;1.05;0.63;;;18.00;99.90;;;;;;4858575;29;20029;-84
2022/09/09 01:24:26;;;;;;;1.20;0.73;;;17.90;99.90;;;;;;4873915;29;20534;-84
2022/09/09 01:27:03;;;;;;;4.13;0.77;;;17.90;99.90;;;;;;4873491;29;20033;-86
2022/09/09 01:29:30;;;;;;;1.98;0.70;;;18.00;99.90;;;;;;4873795;29;20033;-84
2022/09/09 01:32:00;;;;;;;1.30;0.70;;;17.90;99.90;;;;;;4873769;29;20507;-84
2022/09/09 01:34:37;;;;;;;0.70;0.70;;;17.90;99.90;;;;;;4873844;29;20041;-84
2022/09/09 01:37:07;;;;;;;6.85;1.25;;;17.90;99.90;;;;;;4873715;29;20030;-84
2022/09/09 01:39:36;;;;;;;1.15;0.68;;;17.90;99.90;;;;;;4854998;29;20048;-84
2022/09/09 01:42:09;;;;;;;0.50;0.50;;;17.90;99.90;;;;;;4854889;29;20050;-84
2022/09/09 01:44:37;;;;;;;3.58;1.10;;;17.90;99.90;;;;;;4855183;29;20053;-84
2022/09/09 01:47:05;;;;;;;1.65;0.65;;;17.90;99.90;;;;;;4854963;29;20239;-84
2022/09/09 01:49:32;;;;;;;1.02;0.45;;;17.90;99.90;;;;;;4854952;29;20033;-84
2022/09/09 01:52:02;;;;;;;0.60;0.60;;;17.90;99.90;;;;;;4855364;29;20496;-84
2022/09/09 01:54:34;;;;;;;2.10;1.27;;;17.90;99.90;;;;;;4859855;29;20049;-85
2022/09/09 01:57:29;;;;;;;1.27;0.80;;;17.80;99.90;;;;;;4873242;29;20061;-84
2022/09/09 02:00:11;;;;;;;2.95;1.40;;;17.80;99.90;;;;;;4873198;29;20036;-86
2022/09/09 02:02:54;;;;;;;5.95;1.40;;;17.80;99.90;;;;;;4874318;29;20025;-84
2022/09/09 02:05:40;;;;;;;2.47;1.23;;;17.80;99.90;;;;;;4873254;29;20061;-86
2022/09/09 02:08:38;;;;;;;4.53;1.60;;;17.80;99.90;;;;;;4872896;29;20056;-84
2022/09/09 02:11:12;;;;;;;1.70;1.33;;;17.80;99.90;;;;;;4873012;29;20040;-84
2022/09/09 02:13:53;;;;;;;1.40;1.30;;;17.80;99.90;;;;;;4873038;29;20029;-84
2022/09/09 02:16:25;;;;;;;1.42;1.35;;;17.80;99.90;;;;;;4872605;29;20066;-84
2022/09/09 02:19:02;;;;;;;3.80;0.98;;;17.80;99.90;;;;;;4872718;29;20037;-84
2022/09/09 02:21:43;;;;;;;1.77;0.85;;;17.70;99.90;;;;;;4872908;29;20053;-84
2022/09/09 02:24:12;;;;;;;3.42;1.08;;;17.70;99.90;;;;;;4872850;29;20034;-84
2022/09/09 02:26:47;;;;;;;0.60;0.60;;;17.70;99.90;;;;;;4873035;29;20036;-84
2022/09/09 02:29:21;;;;;;;2.70;1.45;;;17.70;99.90;;;;;;4872396;29;20037;-84
2022/09/09 02:31:49;;;;;;;1.17;1.00;;;17.70;99.90;;;;;;4872465;29;20042;-84
2022/09/09 02:34:24;;;;;;;1.70;1.60;;;17.70;99.90;;;;;;4871993;29;20022;-84
2022/09/09 02:36:52;;;;;;;1.73;0.75;;;17.70;99.90;;;;;;4872358;29;20036;-84
2022/09/09 02:39:18;;;;;;;2.70;1.38;;;17.70;99.90;;;;;;4872411;29;20029;-84
2022/09/09 02:41:44;;;;;;;5.97;1.80;;;17.70;99.90;;;;;;4879806;29;20056;-84
2022/09/09 02:44:12;;;;;;;1.52;0.90;;;17.70;99.90;;;;;;4860290;29;20403;-84
2022/09/09 02:47:05;;;;;;;0.98;0.85;;;17.70;99.90;;;;;;4892247;29;20081;-84
2022/09/09 02:49:43;;;;;;;2.15;1.17;;;17.60;99.90;;;;;;4875494;29;20036;-84
2022/09/09 02:52:18;;;;;;;3.65;1.55;;;17.60;99.90;;;;;;4874958;29;20021;-84
2022/09/09 02:54:45;;;;;;;1.20;1.00;;;17.60;99.90;;;;;;4880699;29;20025;-85
2022/09/09 02:57:27;;;;;;;0.50;0.30;;;17.60;99.90;;;;;;4879059;29;20029;-84
2022/09/09 02:59:57;;;;;;;11.35;1.42;;;17.60;99.90;;;;;;4910998;29;20024;-84
2022/09/09 03:02:24;;;;;;;2.28;1.15;;;17.60;99.90;;;;;;4878461;29;20467;-83
2022/09/09 03:04:54;;;;;;;2.38;1.08;;;17.60;99.90;;;;;;4893860;29;20052;-84
2022/09/09 03:07:21;;;;;;;6.97;0.68;;;17.60;99.90;;;;;;4866464;29;20045;-84
2022/09/09 03:09:48;;;;;;;4.13;1.13;;;17.60;99.90;;;;;;4860043;29;20036;-84
2022/09/09 03:12:15;;;;;;;3.08;0.82;;;17.60;99.90;;;;;;4875271;29;20037;-84
2022/09/09 03:14:41;;;;;;;2.53;0.90;;;17.60;99.90;;;;;;4874772;29;20029;-84
2022/09/09 03:17:09;;;;;;;17.27;1.65;;;17.60;99.90;;;;;;4875320;29;20025;-84
2022/09/09 03:19:40;;;;;;;6.45;2.08;;;17.60;99.90;;;;;;4875909;29;20025;-84
2022/09/09 03:22:11;;;;;;;5.13;1.23;;;17.60;99.90;;;;;;4875617;29;20055;-84
2022/09/09 03:24:40;;;;;;;2.75;1.63;;;17.50;99.90;;;;;;4860247;29;20465;-84
2022/09/09 03:27:06;;;;;;;2.92;1.25;;;17.50;99.90;;;;;;4875033;29;20033;-84
2022/09/09 03:29:32;;;;;;;2.08;0.90;;;17.50;99.90;;;;;;4859225;29;20529;-84
2022/09/09 03:32:01;;;;;;;9.07;2.40;;;17.90;99.90;;;;;;4860140;29;20124;-84
2022/09/09 03:34:28;;;;;;;2.20;1.88;;;17.50;99.90;;;;;;4874982;29;20056;-84
2022/09/09 03:36:56;;;;;;;2.13;1.13;;;17.50;99.90;;;;;;4874852;29;20037;-85
2022/09/09 03:39:22;;;;;;;2.40;1.08;;;17.50;99.90;;;;;;4874925;29;20070;-84
2022/09/09 03:41:48;;;;;;;4.43;1.77;;;17.50;99.90;;;;;;4874765;29;20117;-84
2022/09/09 03:44:15;;;;;;;3.08;1.45;;;17.50;99.90;;;;;;4859455;29;20029;-84
2022/09/09 03:46:42;;;;;;;1.05;0.90;;;17.50;99.90;;;;;;4859830;29;20070;-84
2022/09/09 03:49:08;;;;;;;3.42;1.17;;;17.50;99.90;;;;;;4859487;29;20037;-84
2022/09/09 03:51:36;;;;;;;1.48;0.77;;;17.50;99.90;;;;;;4891703;29;20025;-84
2022/09/09 03:54:04;;;;;;;0.63;0.63;;;17.50;99.90;;;;;;4874851;29;20033;-84
2022/09/09 03:56:31;;;;;;;1.63;1.48;;;17.50;99.90;;;;;;4877426;29;20116;-84
2022/09/09 03:58:57;;;;;;;6.45;1.00;;;17.50;99.90;;;;;;4873691;29;20120;-84
2022/09/09 04:01:24;;;;;;;4.30;0.88;;;17.50;99.90;;;;;;4874782;29;20037;-84
2022/09/09 04:03:50;;;;;;;4.45;1.60;;;17.40;99.90;;;;;;4874928;29;20053;-84
2022/09/09 04:06:19;;;;;;;4.95;2.08;;;17.50;99.90;;;;;;4874460;29;20045;-84
2022/09/09 04:08:48;;;;;;;3.45;1.50;;;17.50;99.90;;;;;;4874282;29;20045;-84
2022/09/09 04:11:15;;;;;;;2.53;1.55;;;17.50;99.90;;;;;;4874843;29;20021;-84
2022/09/09 04:13:44;;;;;;;1.83;1.00;;;17.50;99.90;;;;;;4874571;29;20034;-85
2022/09/09 04:16:13;;;;;;;4.50;1.55;;;17.50;99.90;;;;;;4859590;29;20037;-84
2022/09/09 04:18:40;;;;;;;1.90;1.10;;;17.50;99.90;;;;;;4874822;29;20434;-84
2022/09/09 04:21:06;;;;;;;4.43;1.40;;;17.50;99.90;;;;;;4874574;29;20058;-85
2022/09/09 04:23:33;;;;;;;5.47;1.70;;;17.50;99.90;;;;;;4874459;29;20105;-84
2022/09/09 04:26:01;;;;;;;5.93;1.27;;;17.50;99.90;;;;;;4859535;29;20060;-84
2022/09/09 04:28:31;;;;;;;2.58;1.35;;;17.50;99.90;;;;;;4874610;29;20531;-84
2022/09/09 04:31:04;;;;;;;4.43;0.80;;;17.50;99.90;;;;;;4874370;29;20025;-84
2022/09/09 04:33:31;;;;;;;1.58;0.52;;;17.40;99.90;;;;;;4874524;29;20029;-84
2022/09/09 04:35:57;;;;;;;4.35;2.22;;;17.60;99.90;;;;;;4874482;29;20037;-84
2022/09/09 04:38:25;;;;;;;2.78;1.25;;;17.40;99.90;;;;;;4874078;29;20061;-84
2022/09/09 04:40:53;;;;;;;4.97;1.35;;;17.50;99.90;;;;;;4874408;29;20025;-84
2022/09/09 04:43:20;;;;;;;1.85;1.27;;;17.50;99.90;;;;;;4859293;29;20053;-84
2022/09/09 04:45:48;;;;;;;3.08;1.02;;;17.40;99.90;;;;;;4874474;29;20025;-83
2022/09/09 04:48:14;;;;;;;4.82;1.65;;;17.40;99.90;;;;;;4874585;29;20033;-84
2022/09/09 04:50:40;;;;;;;3.28;2.53;;;17.40;99.90;;;;;;4874585;29;20547;-84
2022/09/09 04:53:08;;;;;;;8.27;1.67;;;17.40;99.90;;;;;;4859069;29;20032;-84
2022/09/09 04:55:37;;;;;;;3.13;1.40;;;17.40;99.90;;;;;;4882759;29;20061;-84
2022/09/09 04:58:08;;;;;;;5.82;1.10;;;17.40;99.90;;;;;;4877692;29;20036;-84
2022/09/09 05:00:35;;;;;;;2.78;0.93;;;17.40;99.90;;;;;;4892912;29;20037;-85
2022/09/09 05:03:05;;;;;;;3.85;1.20;;;17.40;99.90;;;;;;4877861;29;20104;-85
2022/09/09 05:05:33;;;;;;;1.40;0.90;;;17.40;99.90;;;;;;4883724;29;20044;-85
2022/09/09 05:08:05;;;;;;;2.83;0.85;;;17.40;99.90;;;;;;4874151;29;20073;-85
2022/09/09 05:10:32;;;;;;;13.60;1.77;;;17.30;99.90;;;;;;4874135;29;20061;-85
2022/09/09 05:12:58;;;;;;;4.00;1.02;;;17.40;99.90;;;;;;4874205;29;20030;-84
2022/09/09 05:15:27;;;;;;;5.57;1.52;;;17.40;99.90;;;;;;4857733;29;20570;-86
2022/09/09 05:17:58;;;;;;;5.63;1.85;;;17.30;99.90;;;;;;4855996;29;20030;-87
2022/09/09 05:20:24;;;;;;;2.30;1.77;;;17.30;99.90;;;;;;4863733;29;20041;-86
2022/09/09 05:22:56;;;;;;;5.18;1.33;;;17.40;99.90;;;;;;4873529;29;20045;-85
2022/09/09 05:25:27;;;;;;;4.95;1.65;;;17.30;99.90;;;;;;4870971;29;20029;-86
2022/09/09 05:27:54;;;;;;;5.57;2.28;;;17.30;99.90;;;;;;4867755;29;20113;-86
2022/09/09 05:30:23;;;;;;;7.82;1.35;;;17.30;99.90;;;;;;4874918;29;20070;-85
2022/09/09 05:32:50;;;;;;;11.07;1.52;;;17.30;99.90;;;;;;4856768;29;20055;-86
2022/09/09 05:35:19;;;;;;;5.82;1.98;;;17.30;99.90;;;;;;4860200;29;20101;-85
2022/09/09 05:37:45;;;;;;;4.55;1.27;;;17.30;99.90;;;;;;4874831;29;20440;-85
2022/09/09 05:40:12;;;;;;;2.75;0.85;;;17.30;99.90;;;;;;4867853;29;20026;-85
2022/09/09 05:42:39;;;;;;;4.55;1.27;;;17.30;99.90;;;;;;4842454;29;20060;-85
2022/09/09 05:45:07;;;;;;;6.15;2.08;;;17.30;99.90;;;;;;4873222;29;20067;-85
2022/09/09 05:47:35;;;;;;;2.95;1.52;;;17.30;99.90;;;;;;4862212;29;20479;-86
2022/09/09 05:50:01;;;;;;;6.18;1.52;;;17.30;99.90;;;;;;4872902;29;20033;-86
2022/09/09 05:52:27;;;;;;;3.83;1.10;;;17.30;99.90;;;;;;4856855;29;20092;-86
2022/09/09 05:54:56;;;;;;;10.50;2.58;;;17.30;99.90;;;;;;4857258;29;20034;-86
2022/09/09 05:57:22;;;;;;;2.80;1.15;;;17.30;99.90;;;;;;4873703;29;20101;-84
2022/09/09 05:59:49;;;;;;;1.88;1.23;;;17.30;99.90;;;;;;4874641;29;20086;-87
2022/09/09 06:02:16;;;;;;;4.25;1.42;;;17.30;99.90;;;;;;4877997;29;20061;-87
2022/09/09 06:04:42;;;;;;;4.32;1.75;;;17.30;99.90;;;;;;4872900;29;20061;-87
2022/09/09 06:07:08;;;;;;;7.88;2.20;;;17.30;99.90;;;;;;4857627;29;20037;-86
2022/09/09 06:09:34;;;;;;;3.35;1.85;;;17.30;99.90;;;;;;4861333;29;20036;-86
2022/09/09 06:12:01;;;;;;;8.23;2.45;;;17.30;99.90;;;;;;4866147;29;20089;-85
2022/09/09 06:14:27;;;;;;;5.07;2.35;;;17.30;99.90;;;;;;4870134;29;20044;-86
2022/09/09 06:16:56;;;;;;;2.85;1.02;;;17.30;99.90;;;;;;4865796;29;20060;-85
2022/09/09 06:19:26;;;;;;;8.65;1.83;;;17.30;99.90;;;;;;4858026;29;20045;-86
2022/09/09 06:21:54;;;;;;;4.47;1.30;;;17.30;99.90;;;;;;4872307;29;20036;-86
2022/09/09 06:24:20;;;;;;;4.30;1.33;;;17.30;99.90;;;;;;4857089;29;20029;-85
2022/09/09 06:26:48;;;;;;;7.20;1.70;;;17.30;99.90;;;;;;4853744;29;20053;-85
2022/09/09 06:29:19;;;;;;;5.43;1.73;;;17.30;99.90;;;;;;4871960;29;20025;-86
2022/09/09 06:31:45;;;;;;;9.63;2.35;;;17.30;99.90;;;;;;4872589;29;20124;-85
2022/09/09 06:34:15;;;;;;;8.55;2.85;;;17.30;99.90;;;;;;4872239;29;20033;-85
2022/09/09 06:36:46;;;;;;;5.85;1.67;;;17.30;99.90;;;;;;4872353;29;20104;-85
2022/09/09 06:39:12;;;;;;;3.47;1.13;;;17.30;99.90;;;;;;4856727;29;20034;-85
2022/09/09 06:41:39;;;;;;;6.15;1.60;;;17.30;99.90;;;;;;4871898;29;20056;-85
2022/09/09 06:44:08;;;;;;;3.40;1.90;;;17.30;99.90;;;;;;4866264;29;20496;-86
2022/09/09 06:46:40;;;;;;;4.05;1.50;;;17.30;99.90;;;;;;4857399;29;20049;-85
2022/09/09 06:49:10;;;;;;;16.55;1.77;;;17.30;99.90;;;;;;4871840;29;20064;-86
2022/09/09 17:15:30;;;;;;;1.83;1.00;;;19.40;99.90;;;;;;5156100;24;20284;-80
2022/09/09 17:17:56;;;;;;;3.72;1.00;;;19.40;99.90;;;;;;4834048;29;20026;-80
2022/09/09 17:20:21;;;;;;;1.42;0.93;;;19.40;99.90;;;;;;4836525;29;20031;-80
2022/09/09 17:22:48;;;;;;;1.45;0.40;;;19.40;99.90;;;;;;4836898;29;20030;-80
2022/09/09 17:25:14;;;;;;;2.05;0.93;;;19.30;99.90;;;;;;4821687;29;20038;-81
2022/09/09 17:27:40;;;;;;;3.63;1.27;;;19.30;99.90;;;;;;4835166;29;20110;-81
2022/09/09 17:30:06;;;;;;;1.60;0.90;;;18.90;99.90;;;;;;4837256;29;20102;-80
2022/09/09 17:32:35;;;;;;;2.78;0.60;;;19.20;99.90;;;;;;4840719;29;20396;-81
2022/09/09 17:35:01;;;;;;;1.55;1.45;;;19.20;99.90;;;;;;4841217;29;20129;-80
2022/09/09 17:37:28;;;;;;;2.40;0.98;;;19.20;99.90;;;;;;4837864;29;20033;-80
2022/09/09 17:39:54;;;;;;;0.45;0.45;;;19.20;99.90;;;;;;4836812;29;20508;-80
2022/09/09 17:42:19;;;;;;;2.25;0.60;;;19.10;99.90;;;;;;4836465;29;20048;-80
2022/09/09 17:44:45;;;;;;;2.10;0.85;;;19.10;99.90;;;;;;4821544;29;20035;-80
2022/09/09 17:47:11;;;;;;;2.22;0.90;;;19.10;99.90;;;;;;4806580;29;20098;-80
2022/09/09 17:49:37;;;;;;;2.65;0.90;;;19.00;99.90;;;;;;4824779;29;20113;-80
2022/09/09 17:52:03;;;;;;;0.55;0.55;;;19.10;99.90;;;;;;4835194;29;20031;-81
2022/09/09 17:54:30;;;;;;;1.08;0.85;;;19.00;99.90;;;;;;4835425;29;20031;-80
2022/09/09 17:56:58;;;;;;;1.10;0.77;;;19.00;99.90;;;;;;4836010;29;20120;-80
2022/09/09 17:59:24;;;;;;;1.58;0.95;;;19.00;99.90;;;;;;4836084;29;20404;-81
2022/09/09 18:01:51;;;;;;;2.83;0.60;;;19.00;99.90;;;;;;4831451;29;20040;-80
2022/09/09 18:04:26;;;;;;;1.35;1.25;;;18.90;99.90;;;;;;4836391;29;20035;-80
2022/09/09 18:06:53;;;;;;;6.57;1.67;;;18.90;99.90;;;;;;4820824;29;20071;-82
2022/09/09 18:09:22;;;;;;;1.42;1.33;;;18.90;99.90;;;;;;4819445;29;20042;-80
2022/09/09 18:11:50;;;;;;;10.10;1.90;;;18.90;99.90;;;;;;4836417;29;20038;-80
2022/09/09 18:14:19;;;;;;;1.70;1.20;;;19.00;99.90;;;;;;4837100;29;20038;-81
2022/09/09 18:16:46;;;;;;;3.05;1.45;;;19.10;99.90;;;;;;4844512;29;20074;-81
2022/09/09 18:19:15;;;;;;;2.15;1.15;;;19.10;99.90;;;;;;4837147;29;20090;-81
2022/09/09 18:21:43;;;;;;;2.60;1.23;;;19.10;99.90;;;;;;4837111;29;20106;-80
2022/09/09 18:24:10;;;;;;;6.03;1.55;;;19.10;99.90;;;;;;4837495;29;20038;-80
2022/09/09 18:26:38;;;;;;;1.55;1.00;;;19.10;99.90;;;;;;4836302;29;20130;-80
2022/09/09 18:29:07;;;;;;;2.20;1.05;;;19.10;99.90;;;;;;4820531;29;20034;-80
2022/09/09 18:31:36;;;;;;;1.40;0.60;;;19.10;99.90;;;;;;4836969;29;20038;-80
2022/09/09 18:34:04;;;;;;;0.65;0.65;;;19.10;99.90;;;;;;4837371;29;20054;-80
2022/09/09 18:36:36;;;;;;;2.25;0.70;;;19.10;99.90;;;;;;4836085;29;20042;-80
2022/09/09 18:39:04;;;;;;;0.55;0.55;;;19.10;99.90;;;;;;4837253;29;20082;-80
2022/09/09 18:41:34;;;;;;;0.50;0.50;;;19.10;99.90;;;;;;4837056;29;20030;-80
2022/09/09 18:44:02;;;;;;;0.43;0.43;;;19.10;99.90;;;;;;4837187;29;20815;-80
2022/09/09 18:46:31;;;;;;;1.85;0.82;;;19.10;99.90;;;;;;4835842;29;20039;-81
2022/09/09 18:48:57;;;;;;;2.08;0.95;;;19.00;99.90;;;;;;4835580;29;20038;-80
2022/09/09 18:51:25;;;;;;;1.52;1.33;;;19.10;99.90;;;;;;4837162;29;20030;-81
2022/09/09 18:53:52;;;;;;;3.25;0.88;;;19.00;99.90;;;;;;4836605;29;20038;-81
2022/09/09 18:56:18;;;;;;;0.80;0.68;;;19.00;99.90;;;;;;4836977;29;20055;-80
2022/09/09 18:58:44;;;;;;;0.77;0.73;;;19.00;99.90;;;;;;4835895;29;20097;-81
2022/09/09 19:01:12;;;;;;;2.00;1.55;;;19.00;99.90;;;;;;4834858;29;20065;-80
2022/09/09 19:03:39;;;;;;;2.13;1.48;;;19.00;99.90;;;;;;4835707;29;20037;-81
2022/09/09 19:06:12;;;;;;;1.55;1.25;;;19.00;99.90;;;;;;4836414;29;20030;-81
2022/09/09 19:08:41;;;;;;;4.90;1.08;;;19.00;99.90;;;;;;4834505;29;20053;-81
2022/09/09 19:11:10;;;;;;;0.90;0.63;;;19.00;99.90;;;;;;4836720;29;20037;-82
2022/09/09 19:13:37;;;;;;;2.17;1.27;;;19.00;99.90;;;;;;4834629;29;20023;-81
2022/09/09 19:16:07;;;;;;;1.48;1.08;;;18.90;99.90;;;;;;4836605;29;20106;-82
2022/09/09 19:18:38;;;;;;;3.92;1.25;;;18.90;99.90;;;;;;4835249;29;20066;-81
2022/09/09 19:21:25;;;;;;;4.13;0.98;;;18.90;99.90;;;;;;4820634;29;20094;-82
2022/09/09 19:24:03;;;;;;;0.63;0.50;;;18.90;99.90;;;;;;4836295;29;20110;-82
2022/09/09 19:26:32;;;;;;;3.90;0.85;;;18.90;99.90;;;;;;4835354;29;20030;-82
2022/09/09 19:29:01;;;;;;;2.13;1.23;;;18.90;99.90;;;;;;4836151;29;20027;-82
2022/09/09 19:31:29;;;;;;;;;;;18.90;99.90;;;;;;4848851;29;20037;-82
2022/09/09 19:33:56;;;;;;;0.77;0.57;;;18.90;99.90;;;;;;4824407;29;19919;-82
2022/09/09 19:36:23;;;;;;;5.80;1.00;;;18.90;99.90;;;;;;4842656;29;20043;-82
2022/09/09 19:38:49;;;;;;;2.17;1.05;;;18.90;99.90;;;;;;4836794;29;20037;-82
2022/09/09 19:41:24;;;;;;;2.63;1.35;;;18.90;99.90;;;;;;4835922;29;20030;-82
2022/09/09 19:43:52;;;;;;;2.97;1.02;;;18.80;99.90;;;;;;4836524;29;20098;-82
2022/09/09 19:46:18;;;;;;;3.65;1.30;;;18.80;99.90;;;;;;4836125;29;20036;-82
2022/09/09 19:48:45;;;;;;;1.38;1.23;;;18.80;99.90;;;;;;4835048;29;20038;-82
2022/09/09 19:51:15;;;;;;;2.00;0.90;;;18.80;99.90;;;;;;4834932;29;20034;-82
2022/09/09 19:53:44;;;;;;;3.08;1.80;;;18.80;99.90;;;;;;4836351;29;20039;-82
2022/09/09 19:56:11;;;;;;;1.15;1.00;;;18.80;99.90;;;;;;4834306;29;20091;-82
2022/09/09 19:58:39;;;;;;;2.85;1.40;;;18.80;99.90;;;;;;4834883;29;20038;-82
2022/09/09 20:01:17;;;;;;;2.45;1.17;;;18.80;99.90;;;;;;4845561;29;20567;-82
2022/09/09 20:03:44;;;;;;;1.92;1.23;;;18.80;99.90;;;;;;4838207;29;20480;-82
2022/09/09 20:06:13;;;;;;;5.10;1.23;;;18.80;99.90;;;;;;4819869;29;20037;-82
2022/09/09 20:08:39;;;;;;;1.60;1.35;;;18.80;99.90;;;;;;4834937;29;20053;-82
2022/09/09 20:11:06;;;;;;;4.03;1.67;;;18.70;99.90;;;;;;4835285;29;20041;-82
2022/09/09 20:13:37;;;;;;;3.25;1.38;;;18.80;99.90;;;;;;4823142;29;20066;-82
2022/09/09 20:16:09;;;;;;;1.23;0.88;;;18.80;99.90;;;;;;4839874;29;20111;-82
2022/09/09 20:18:37;;;;;;;3.40;1.75;;;18.70;99.90;;;;;;4856662;29;20082;-82
2022/09/09 20:21:10;;;;;;;5.88;3.28;;;18.70;99.90;;;;;;4841613;29;20022;-82
2022/09/09 20:23:36;;;;;;;2.47;1.20;;;18.70;99.90;;;;;;4857986;29;20026;-82
2022/09/09 20:26:05;;;;;;;4.82;1.58;;;18.70;99.90;;;;;;4856616;29;20050;-82
2022/09/09 20:28:34;;;;;;;4.82;1.65;;;18.70;99.90;;;;;;4857815;29;20037;-82
2022/09/09 20:31:13;;;;;;;3.25;1.27;;;18.70;99.90;;;;;;4840329;29;20046;-82
2022/09/09 20:33:41;;;;;;;2.23;1.07;;;18.70;99.90;;;;;;4838105;29;20039;-82
2022/09/09 20:36:14;;;;;;;3.58;1.58;;;18.70;99.90;;;;;;4837799;29;20038;-82
2022/09/09 20:38:45;;;;;;;3.60;1.25;;;18.70;99.90;;;;;;4838053;29;20041;-82
2022/09/09 20:41:14;;;;;;;4.60;1.60;;;18.70;99.90;;;;;;4838032;29;20045;-82
2022/09/09 20:43:48;;;;;;;4.50;1.38;;;18.70;99.90;;;;;;4837663;29;20223;-82
2022/09/09 20:46:24;;;;;;;2.92;0.80;;;18.70;99.90;;;;;;4839092;29;20041;-82
2022/09/09 20:48:51;;;;;;;4.93;1.67;;;18.70;99.90;;;;;;4837647;29;20099;-82
2022/09/09 20:51:19;;;;;;;7.20;1.58;;;18.70;99.90;;;;;;4838300;29;20037;-82
2022/09/09 20:53:46;;;;;;;3.17;1.60;;;18.70;99.90;;;;;;4836843;29;20045;-83
2022/09/09 20:56:15;;;;;;;3.30;1.88;;;18.70;99.90;;;;;;4836895;29;20365;-82
2022/09/09 20:58:42;;;;;;;2.20;1.17;;;18.60;99.90;;;;;;4838760;29;20093;-82
2022/09/09 21:01:13;;;;;;;4.47;0.95;;;18.60;99.90;;;;;;4837069;29;20067;-82
2022/09/09 21:03:39;;;;;;;3.20;1.27;;;18.70;99.90;;;;;;4837320;29;20054;-82
2022/09/09 21:06:06;;;;;;;4.65;1.33;;;18.60;99.90;;;;;;4837516;29;20041;-82
2022/09/09 21:08:34;;;;;;;2.60;1.35;;;18.60;99.90;;;;;;4837344;29;20055;-82
2022/09/09 21:11:02;;;;;;;6.80;1.35;;;18.60;99.90;;;;;;4838396;29;20423;-82
2022/09/09 21:13:33;;;;;;;5.70;0.98;;;18.60;99.90;;;;;;4837583;29;20072;-82
2022/09/09 21:16:00;;;;;;;2.35;1.67;;;18.60;99.90;;;;;;4837919;29;20054;-82
2022/09/09 21:18:28;;;;;;;3.13;1.20;;;18.60;99.90;;;;;;4837123;29;20050;-82
2022/09/09 21:20:55;;;;;;;1.92;1.50;;;18.50;99.90;;;;;;4836964;29;20038;-82
2022/09/09 21:23:21;;;;;;;1.15;0.88;;;18.50;99.90;;;;;;4836142;29;20155;-83
2022/09/09 21:25:48;;;;;;;4.18;1.02;;;18.50;99.90;;;;;;4838292;29;20050;-82
2022/09/09 21:28:15;;;;;;;7.22;1.95;;;18.50;99.90;;;;;;4846856;29;20034;-82
2022/09/09 21:30:46;;;;;;;4.15;2.35;;;18.50;99.90;;;;;;4840189;29;20045;-82
2022/09/09 21:33:12;;;;;;;2.55;1.05;;;18.50;99.90;;;;;;4856689;29;20067;-82
2022/09/09 21:35:40;;;;;;;5.72;2.42;;;18.50;99.90;;;;;;4856476;29;20038;-82
2022/09/09 21:38:08;;;;;;;2.20;1.40;;;18.50;99.90;;;;;;4855371;29;20034;-82
2022/09/09 21:40:37;;;;;;;2.00;1.25;;;18.50;99.90;;;;;;4845471;29;20461;-82
2022/09/09 21:43:10;;;;;;;1.73;1.05;;;18.50;99.90;;;;;;4836673;29;20109;-82
2022/09/09 21:45:41;;;;;;;6.03;1.58;;;18.50;99.90;;;;;;4822334;29;20073;-82
2022/09/09 21:48:10;;;;;;;1.85;1.17;;;18.40;99.90;;;;;;4837904;29;20029;-82
2022/09/09 21:50:39;;;;;;;2.63;1.67;;;18.40;99.90;;;;;;4837876;29;20071;-82
2022/09/09 21:53:06;;;;;;;6.38;1.75;;;18.40;99.90;;;;;;4837438;29;20034;-82
2022/09/09 21:55:33;;;;;;;1.70;1.50;;;18.40;99.90;;;;;;4835931;29;20059;-82
2022/09/09 21:57:59;;;;;;;8.10;2.90;;;18.40;99.90;;;;;;4836160;29;20018;-82
2022/09/09 22:00:25;;;;;;;5.53;2.33;;;18.40;99.90;;;;;;4836510;29;20064;-82
2022/09/09 22:02:51;;;;;;;10.88;2.35;;;18.40;99.90;;;;;;4836874;29;20039;-82
2022/09/09 22:05:17;;;;;;;7.47;1.80;;;18.40;99.90;;;;;;4836061;29;20079;-82
2022/09/09 22:07:43;;;;;;;2.78;1.02;;;18.30;99.90;;;;;;4836113;29;20038;-82
2022/09/09 22:10:09;;;;;;;3.67;1.40;;;18.40;99.90;;;;;;4837433;29;20035;-82
2022/09/09 22:12:36;;;;;;;4.32;1.55;;;18.30;99.90;;;;;;4836361;29;20034;-82
2022/09/09 22:15:02;;;;;;;5.15;1.90;;;18.30;99.90;;;;;;4837052;29;20050;-82
2022/09/09 22:17:33;;;;;;;3.65;1.52;;;18.30;99.90;;;;;;4836278;29;20035;-82
2022/09/09 22:19:58;;;;;;;4.07;1.98;;;18.30;99.90;;;;;;4821583;29;20030;-82
2022/09/09 22:22:24;;;;;;;7.32;2.03;;;18.30;99.90;;;;;;4836112;29;20143;-82
2022/09/09 22:24:50;;;;;;;2.75;1.90;;;18.30;99.90;;;;;;4837374;29;20069;-82
2022/09/09 22:27:17;;;;;;;5.32;1.48;;;18.30;99.90;;;;;;4836668;29;20094;-82
2022/09/09 22:29:42;;;;;;;2.60;0.98;;;18.20;99.90;;;;;;4805680;29;20045;-82
2022/09/09 22:32:09;;;;;;;4.20;1.17;;;18.20;99.90;;;;;;4836228;29;20022;-82
2022/09/09 22:34:36;;;;;;;2.20;0.88;;;18.20;99.90;;;;;;4837223;29;20054;-83
2022/09/09 22:37:03;;;;;;;6.45;1.80;;;18.20;99.90;;;;;;4835682;29;20049;-82
2022/09/09 22:39:32;;;;;;;2.53;1.17;;;18.20;99.90;;;;;;4835482;29;20030;-82
2022/09/09 22:41:58;;;;;;;0.90;0.52;;;18.20;99.90;;;;;;4836741;29;20461;-82
2022/09/09 22:44:25;;;;;;;1.52;1.33;;;18.20;99.90;;;;;;4835864;29;20108;-82
2022/09/09 22:46:52;;;;;;;2.33;0.80;;;18.20;99.90;;;;;;4835991;29;20050;-82
2022/09/09 22:49:18;;;;;;;1.73;0.57;;;18.20;99.90;;;;;;4835584;29;20035;-82
2022/09/09 22:52:15;;;;;;;3.45;1.13;;;18.10;99.90;;;;;;4835260;29;20087;-82
2022/09/09 22:54:41;;;;;;;2.05;0.85;;;18.10;99.90;;;;;;4839882;29;20053;-82
2022/09/09 22:57:08;;;;;;;1.33;0.98;;;18.10;99.90;;;;;;4835694;29;20076;-82
2022/09/09 22:59:35;;;;;;;4.07;1.35;;;18.10;99.90;;;;;;4836698;29;20030;-82
2022/09/09 23:02:01;;;;;;;5.13;2.15;;;18.10;99.90;;;;;;4835339;29;20034;-82
2022/09/09 23:04:32;;;;;;;4.70;1.00;;;18.10;99.90;;;;;;4835431;29;20129;-82
2022/09/09 23:07:06;;;;;;;2.55;1.00;;;18.00;99.90;;;;;;4835621;29;20054;-82
2022/09/09 23:09:32;;;;;;;1.52;1.00;;;18.00;99.90;;;;;;4836334;29;20046;-82
2022/09/09 23:11:59;;;;;;;2.67;1.60;;;18.00;99.90;;;;;;4836674;29;20113;-82
2022/09/09 23:14:25;;;;;;;3.72;1.30;;;17.90;99.90;;;;;;4819668;29;20400;-81
2022/09/09 23:16:52;;;;;;;2.45;1.55;;;18.00;99.90;;;;;;4827174;29;20141;-82
2022/09/09 23:19:18;;;;;;;6.60;1.88;;;18.00;99.90;;;;;;4835124;29;20058;-82
2022/09/09 23:21:52;;;;;;;5.47;1.30;;;17.90;99.90;;;;;;4836209;29;20038;-82
2022/09/09 23:24:19;;;;;;;3.67;1.55;;;19.20;99.90;;;;;;4852025;29;20034;-82
2022/09/09 23:26:46;;;;;;;2.65;1.45;;;18.00;99.90;;;;;;4852445;29;20050;-81